sensor_id;sensor_type;location;lat;lon;timestamp;P1;durP1;ratioP1;P2;durP2;ratioP2
34814;SDS011;21030;53.912;15.214;2023-02-28T00:01:33;3.05;;;1.25;;
34814;SDS011;21030;53.912;15.214;2023-02-28T00:04:00;5.55;;;2.78;;
34814;SDS011;21030;53.912;15.214;2023-02-28T00:06:28;2.67;;;1.42;;
34814;SDS011;21030;53.912;15.214;2023-02-28T00:08:55;0.63;;;0.63;;
34814;SDS011;21030;53.912;15.214;2023-02-28T00:11:22;1.70;;;1.38;;
34814;SDS011;21030;53.912;15.214;2023-02-28T00:13:49;2.10;;;0.75;;
34814;SDS011;21030;53.912;15.214;2023-02-28T00:16:20;0.70;;;0.70;;
34814;SDS011;21030;53.912;15.214;2023-02-28T00:18:48;5.20;;;2.30;;
34814;SDS011;21030;53.912;15.214;2023-02-28T00:21:16;3.08;;;1.25;;
34814;SDS011;21030;53.912;15.214;2023-02-28T00:23:44;8.68;;;2.35;;
34814;SDS011;21030;53.912;15.214;2023-02-28T00:26:11;3.58;;;1.50;;
34814;SDS011;21030;53.912;15.214;2023-02-28T00:28:38;15.50;;;4.55;;
34814;SDS011;21030;53.912;15.214;2023-02-28T00:31:05;10.43;;;3.65;;
34814;SDS011;21030;53.912;15.214;2023-02-28T00:33:33;7.55;;;3.60;;
34814;SDS011;21030;53.912;15.214;2023-02-28T00:36:01;8.13;;;5.68;;
34814;SDS011;21030;53.912;15.214;2023-02-28T00:38:32;17.52;;;5.72;;
34814;SDS011;21030;53.912;15.214;2023-02-28T00:41:00;12.85;;;7.07;;
34814;SDS011;21030;53.912;15.214;2023-02-28T00:43:34;5.03;;;4.30;;
34814;SDS011;21030;53.912;15.214;2023-02-28T00:46:03;10.02;;;3.08;;
34814;SDS011;21030;53.912;15.214;2023-02-28T00:48:31;7.80;;;3.15;;
34814;SDS011;21030;53.912;15.214;2023-02-28T00:50:58;11.18;;;6.22;;
34814;SDS011;21030;53.912;15.214;2023-02-28T00:53:26;16.13;;;6.80;;
34814;SDS011;21030;53.912;15.214;2023-02-28T00:55:53;6.85;;;3.90;;
34814;SDS011;21030;53.912;15.214;2023-02-28T00:58:20;9.55;;;6.55;;
34814;SDS011;21030;53.912;15.214;2023-02-28T01:00:47;8.70;;;4.95;;
34814;SDS011;21030;53.912;15.214;2023-02-28T01:03:19;19.50;;;7.82;;
34814;SDS011;21030;53.912;15.214;2023-02-28T01:05:46;7.72;;;5.38;;
34814;SDS011;21030;53.912;15.214;2023-02-28T01:08:14;4.90;;;4.05;;
34814;SDS011;21030;53.912;15.214;2023-02-28T01:10:41;7.43;;;4.00;;
34814;SDS011;21030;53.912;15.214;2023-02-28T01:13:08;8.25;;;4.63;;
34814;SDS011;21030;53.912;15.214;2023-02-28T01:15:36;20.10;;;5.57;;
34814;SDS011;21030;53.912;15.214;2023-02-28T01:18:04;13.60;;;6.65;;
34814;SDS011;21030;53.912;15.214;2023-02-28T01:20:31;20.92;;;5.47;;
34814;SDS011;21030;53.912;15.214;2023-02-28T01:22:58;6.68;;;3.35;;
34814;SDS011;21030;53.912;15.214;2023-02-28T01:25:26;12.70;;;5.25;;
34814;SDS011;21030;53.912;15.214;2023-02-28T01:27:53;4.03;;;2.92;;
34814;SDS011;21030;53.912;15.214;2023-02-28T01:30:20;10.30;;;3.67;;
34814;SDS011;21030;53.912;15.214;2023-02-28T01:32:47;22.45;;;5.78;;
34814;SDS011;21030;53.912;15.214;2023-02-28T01:35:14;4.85;;;3.50;;
34814;SDS011;21030;53.912;15.214;2023-02-28T01:37:41;8.10;;;3.40;;
34814;SDS011;21030;53.912;15.214;2023-02-28T01:40:08;7.07;;;4.15;;
34814;SDS011;21030;53.912;15.214;2023-02-28T01:42:36;9.25;;;3.45;;
34814;SDS011;21030;53.912;15.214;2023-02-28T01:45:37;12.52;;;6.28;;
34814;SDS011;21030;53.912;15.214;2023-02-28T01:48:07;7.18;;;3.50;;
34814;SDS011;21030;53.912;15.214;2023-02-28T01:50:36;12.00;;;3.90;;
34814;SDS011;21030;53.912;15.214;2023-02-28T01:53:09;17.33;;;4.63;;
34814;SDS011;21030;53.912;15.214;2023-02-28T01:55:39;5.00;;;2.97;;
34814;SDS011;21030;53.912;15.214;2023-02-28T01:58:08;9.32;;;4.65;;
34814;SDS011;21030;53.912;15.214;2023-02-28T02:00:35;9.48;;;5.50;;
34814;SDS011;21030;53.912;15.214;2023-02-28T02:03:06;7.13;;;5.63;;
34814;SDS011;21030;53.912;15.214;2023-02-28T02:08:05;7.45;;;4.53;;
34814;SDS011;21030;53.912;15.214;2023-02-28T02:10:56;5.40;;;3.85;;
34814;SDS011;21030;53.912;15.214;2023-02-28T02:19:12;22.92;;;2.88;;
34814;SDS011;21030;53.912;15.214;2023-02-28T02:27:33;5.47;;;3.20;;
34814;SDS011;21030;53.912;15.214;2023-02-28T02:30:30;3.08;;;2.35;;
34814;SDS011;21030;53.912;15.214;2023-02-28T02:33:39;1.20;;;0.98;;
34814;SDS011;21030;53.912;15.214;2023-02-28T02:39:24;2.15;;;1.70;;
34814;SDS011;21030;53.912;15.214;2023-02-28T02:41:58;2.60;;;1.65;;
34814;SDS011;21030;53.912;15.214;2023-02-28T02:47:31;33.13;;;1.13;;
34814;SDS011;21030;53.912;15.214;2023-02-28T02:50:01;2.83;;;2.58;;
34814;SDS011;21030;53.912;15.214;2023-02-28T02:52:37;1.15;;;0.60;;
34814;SDS011;21030;53.912;15.214;2023-02-28T02:55:09;1.85;;;1.60;;
34814;SDS011;21030;53.912;15.214;2023-02-28T03:00:18;7.03;;;2.15;;
34814;SDS011;21030;53.912;15.214;2023-02-28T03:02:49;2.33;;;1.67;;
34814;SDS011;21030;53.912;15.214;2023-02-28T03:05:29;3.38;;;2.33;;
34814;SDS011;21030;53.912;15.214;2023-02-28T03:08:05;6.90;;;2.63;;
34814;SDS011;21030;53.912;15.214;2023-02-28T03:10:34;3.90;;;2.40;;
34814;SDS011;21030;53.912;15.214;2023-02-28T03:27:27;3.40;;;1.55;;
34814;SDS011;21030;53.912;15.214;2023-02-28T03:30:03;10.35;;;4.38;;
34814;SDS011;21030;53.912;15.214;2023-02-28T03:32:43;3.35;;;3.05;;
34814;SDS011;21030;53.912;15.214;2023-02-28T03:35:14;3.05;;;2.75;;
34814;SDS011;21030;53.912;15.214;2023-02-28T03:38:07;6.70;;;3.25;;
34814;SDS011;21030;53.912;15.214;2023-02-28T03:40:48;4.97;;;2.20;;
34814;SDS011;21030;53.912;15.214;2023-02-28T03:43:23;4.88;;;2.58;;
34814;SDS011;21030;53.912;15.214;2023-02-28T03:45:55;19.92;;;4.15;;
34814;SDS011;21030;53.912;15.214;2023-02-28T03:51:29;2.45;;;1.40;;
34814;SDS011;21030;53.912;15.214;2023-02-28T03:53:59;12.52;;;3.88;;
34814;SDS011;21030;53.912;15.214;2023-02-28T03:56:48;2.60;;;1.42;;
34814;SDS011;21030;53.912;15.214;2023-02-28T03:59:37;4.70;;;2.22;;
34814;SDS011;21030;53.912;15.214;2023-02-28T04:02:10;4.43;;;2.78;;
34814;SDS011;21030;53.912;15.214;2023-02-28T04:04:38;2.88;;;2.22;;
34814;SDS011;21030;53.912;15.214;2023-02-28T04:07:08;4.10;;;2.03;;
34814;SDS011;21030;53.912;15.214;2023-02-28T04:09:37;1.85;;;1.40;;
34814;SDS011;21030;53.912;15.214;2023-02-28T04:12:05;7.03;;;2.42;;
34814;SDS011;21030;53.912;15.214;2023-02-28T04:14:33;1.40;;;1.30;;
34814;SDS011;21030;53.912;15.214;2023-02-28T04:17:00;8.65;;;2.17;;
34814;SDS011;21030;53.912;15.214;2023-02-28T04:19:27;5.72;;;2.80;;
34814;SDS011;21030;53.912;15.214;2023-02-28T04:21:54;3.72;;;2.38;;
34814;SDS011;21030;53.912;15.214;2023-02-28T04:24:23;5.57;;;3.35;;
34814;SDS011;21030;53.912;15.214;2023-02-28T04:26:53;1.60;;;1.42;;
34814;SDS011;21030;53.912;15.214;2023-02-28T04:29:26;3.72;;;1.63;;
34814;SDS011;21030;53.912;15.214;2023-02-28T04:31:55;2.90;;;2.20;;
34814;SDS011;21030;53.912;15.214;2023-02-28T04:34:26;0.68;;;0.68;;
34814;SDS011;21030;53.912;15.214;2023-02-28T04:36:55;2.47;;;1.00;;
34814;SDS011;21030;53.912;15.214;2023-02-28T04:39:39;5.40;;;2.42;;
34814;SDS011;21030;53.912;15.214;2023-02-28T04:42:08;1.75;;;1.23;;
34814;SDS011;21030;53.912;15.214;2023-02-28T04:44:35;8.70;;;1.75;;
34814;SDS011;21030;53.912;15.214;2023-02-28T04:47:03;0.93;;;0.80;;
34814;SDS011;21030;53.912;15.214;2023-02-28T04:49:30;3.28;;;2.42;;
34814;SDS011;21030;53.912;15.214;2023-02-28T04:51:57;1.17;;;1.08;;
34814;SDS011;21030;53.912;15.214;2023-02-28T04:54:24;1.25;;;1.02;;
34814;SDS011;21030;53.912;15.214;2023-02-28T04:56:51;3.50;;;0.93;;
34814;SDS011;21030;53.912;15.214;2023-02-28T04:59:18;1.23;;;1.13;;
34814;SDS011;21030;53.912;15.214;2023-02-28T05:01:46;11.98;;;1.38;;
34814;SDS011;21030;53.912;15.214;2023-02-28T05:04:14;3.65;;;1.77;;
34814;SDS011;21030;53.912;15.214;2023-02-28T05:06:42;2.17;;;1.67;;
34814;SDS011;21030;53.912;15.214;2023-02-28T05:09:09;2.25;;;1.02;;
34814;SDS011;21030;53.912;15.214;2023-02-28T05:11:39;2.05;;;1.17;;
34814;SDS011;21030;53.912;15.214;2023-02-28T05:14:09;2.85;;;2.15;;
34814;SDS011;21030;53.912;15.214;2023-02-28T05:16:39;2.25;;;1.88;;
34814;SDS011;21030;53.912;15.214;2023-02-28T05:19:06;3.35;;;2.35;;
34814;SDS011;21030;53.912;15.214;2023-02-28T05:21:34;3.00;;;1.63;;
34814;SDS011;21030;53.912;15.214;2023-02-28T05:24:07;1.92;;;1.30;;
34814;SDS011;21030;53.912;15.214;2023-02-28T05:26:39;8.35;;;2.72;;
34814;SDS011;21030;53.912;15.214;2023-02-28T05:29:08;3.63;;;2.45;;
34814;SDS011;21030;53.912;15.214;2023-02-28T05:31:35;2.83;;;1.92;;
34814;SDS011;21030;53.912;15.214;2023-02-28T05:34:03;2.55;;;2.35;;
34814;SDS011;21030;53.912;15.214;2023-02-28T05:36:33;5.65;;;1.67;;
34814;SDS011;21030;53.912;15.214;2023-02-28T05:39:00;8.45;;;2.03;;
34814;SDS011;21030;53.912;15.214;2023-02-28T05:41:27;0.35;;;0.35;;
34814;SDS011;21030;53.912;15.214;2023-02-28T05:43:55;2.20;;;1.48;;
34814;SDS011;21030;53.912;15.214;2023-02-28T05:46:23;4.53;;;2.78;;
34814;SDS011;21030;53.912;15.214;2023-02-28T05:48:50;3.30;;;2.08;;
34814;SDS011;21030;53.912;15.214;2023-02-28T05:51:17;2.05;;;1.85;;
34814;SDS011;21030;53.912;15.214;2023-02-28T05:53:44;2.28;;;1.08;;
34814;SDS011;21030;53.912;15.214;2023-02-28T05:56:12;3.65;;;1.50;;
34814;SDS011;21030;53.912;15.214;2023-02-28T05:58:39;1.95;;;1.70;;
34814;SDS011;21030;53.912;15.214;2023-02-28T06:01:19;4.03;;;1.38;;
34814;SDS011;21030;53.912;15.214;2023-02-28T06:03:49;2.33;;;1.48;;
34814;SDS011;21030;53.912;15.214;2023-02-28T06:06:17;2.08;;;1.13;;
34814;SDS011;21030;53.912;15.214;2023-02-28T06:08:44;4.72;;;2.20;;
34814;SDS011;21030;53.912;15.214;2023-02-28T06:11:12;4.03;;;1.92;;
34814;SDS011;21030;53.912;15.214;2023-02-28T06:13:39;1.70;;;1.50;;
34814;SDS011;21030;53.912;15.214;2023-02-28T06:16:07;4.00;;;2.47;;
34814;SDS011;21030;53.912;15.214;2023-02-28T06:18:37;13.88;;;2.38;;
34814;SDS011;21030;53.912;15.214;2023-02-28T06:21:05;1.27;;;1.10;;
34814;SDS011;21030;53.912;15.214;2023-02-28T06:23:32;1.60;;;1.45;;
34814;SDS011;21030;53.912;15.214;2023-02-28T06:25:59;2.40;;;2.20;;
34814;SDS011;21030;53.912;15.214;2023-02-28T06:28:27;8.93;;;3.55;;
34814;SDS011;21030;53.912;15.214;2023-02-28T06:30:54;8.27;;;2.10;;
34814;SDS011;21030;53.912;15.214;2023-02-28T06:33:21;7.25;;;3.17;;
34814;SDS011;21030;53.912;15.214;2023-02-28T06:35:52;11.13;;;3.90;;
34814;SDS011;21030;53.912;15.214;2023-02-28T06:38:20;1.63;;;1.20;;
34814;SDS011;21030;53.912;15.214;2023-02-28T06:40:54;2.95;;;2.22;;
34814;SDS011;21030;53.912;15.214;2023-02-28T06:43:23;5.03;;;2.35;;
34814;SDS011;21030;53.912;15.214;2023-02-28T06:45:54;8.18;;;3.78;;
34814;SDS011;21030;53.912;15.214;2023-02-28T06:50:49;3.70;;;2.05;;
34814;SDS011;21030;53.912;15.214;2023-02-28T06:53:16;7.35;;;3.20;;
34814;SDS011;21030;53.912;15.214;2023-02-28T06:55:44;12.93;;;5.95;;
34814;SDS011;21030;53.912;15.214;2023-02-28T06:58:11;11.43;;;6.88;;
34814;SDS011;21030;53.912;15.214;2023-02-28T07:03:10;5.95;;;4.35;;
34814;SDS011;21030;53.912;15.214;2023-02-28T07:05:38;7.13;;;4.57;;
34814;SDS011;21030;53.912;15.214;2023-02-28T07:08:06;10.02;;;5.57;;
34814;SDS011;21030;53.912;15.214;2023-02-28T07:10:33;6.53;;;4.28;;
34814;SDS011;21030;53.912;15.214;2023-02-28T07:13:00;13.00;;;3.92;;
34814;SDS011;21030;53.912;15.214;2023-02-28T07:15:27;9.90;;;4.25;;
34814;SDS011;21030;53.912;15.214;2023-02-28T07:17:55;5.93;;;3.13;;
34814;SDS011;21030;53.912;15.214;2023-02-28T07:20:23;11.95;;;4.85;;
34814;SDS011;21030;53.912;15.214;2023-02-28T07:22:50;10.00;;;5.15;;
34814;SDS011;21030;53.912;15.214;2023-02-28T07:25:23;20.17;;;5.85;;
34814;SDS011;21030;53.912;15.214;2023-02-28T07:27:51;4.10;;;2.88;;
34814;SDS011;21030;53.912;15.214;2023-02-28T07:30:18;8.65;;;5.47;;
34814;SDS011;21030;53.912;15.214;2023-02-28T07:32:46;10.18;;;5.63;;
34814;SDS011;21030;53.912;15.214;2023-02-28T07:35:14;19.15;;;4.90;;
34814;SDS011;21030;53.912;15.214;2023-02-28T07:37:42;9.60;;;4.70;;
34814;SDS011;21030;53.912;15.214;2023-02-28T07:40:10;6.60;;;3.58;;
34814;SDS011;21030;53.912;15.214;2023-02-28T07:42:38;10.25;;;4.10;;
34814;SDS011;21030;53.912;15.214;2023-02-28T07:45:05;9.27;;;4.40;;
34814;SDS011;21030;53.912;15.214;2023-02-28T07:47:33;8.98;;;3.55;;
34814;SDS011;21030;53.912;15.214;2023-02-28T07:50:01;10.10;;;5.10;;
34814;SDS011;21030;53.912;15.214;2023-02-28T07:52:28;9.00;;;4.75;;
34814;SDS011;21030;53.912;15.214;2023-02-28T07:54:55;11.88;;;4.53;;
34814;SDS011;21030;53.912;15.214;2023-02-28T07:57:23;8.02;;;3.53;;
34814;SDS011;21030;53.912;15.214;2023-02-28T07:59:51;6.78;;;4.70;;
34814;SDS011;21030;53.912;15.214;2023-02-28T08:02:19;6.43;;;2.85;;
34814;SDS011;21030;53.912;15.214;2023-02-28T08:04:48;9.40;;;4.20;;
34814;SDS011;21030;53.912;15.214;2023-02-28T08:07:16;14.73;;;4.95;;
34814;SDS011;21030;53.912;15.214;2023-02-28T08:09:44;6.85;;;4.35;;
34814;SDS011;21030;53.912;15.214;2023-02-28T08:12:11;6.80;;;3.58;;
34814;SDS011;21030;53.912;15.214;2023-02-28T08:14:38;5.95;;;4.03;;
34814;SDS011;21030;53.912;15.214;2023-02-28T08:17:06;9.10;;;3.50;;
34814;SDS011;21030;53.912;15.214;2023-02-28T08:19:33;4.72;;;2.58;;
34814;SDS011;21030;53.912;15.214;2023-02-28T08:22:00;3.17;;;2.40;;
34814;SDS011;21030;53.912;15.214;2023-02-28T08:24:27;5.32;;;3.22;;
34814;SDS011;21030;53.912;15.214;2023-02-28T08:26:54;8.50;;;3.20;;
34814;SDS011;21030;53.912;15.214;2023-02-28T08:29:22;8.90;;;3.88;;
34814;SDS011;21030;53.912;15.214;2023-02-28T08:31:50;5.70;;;3.00;;
34814;SDS011;21030;53.912;15.214;2023-02-28T08:34:18;11.48;;;3.28;;
34814;SDS011;21030;53.912;15.214;2023-02-28T08:36:45;3.65;;;2.25;;
34814;SDS011;21030;53.912;15.214;2023-02-28T08:39:12;4.90;;;1.90;;
34814;SDS011;21030;53.912;15.214;2023-02-28T08:41:39;4.75;;;2.03;;
34814;SDS011;21030;53.912;15.214;2023-02-28T08:44:08;2.78;;;2.17;;
34814;SDS011;21030;53.912;15.214;2023-02-28T08:46:35;8.70;;;2.35;;
34814;SDS011;21030;53.912;15.214;2023-02-28T08:49:02;5.00;;;3.08;;
34814;SDS011;21030;53.912;15.214;2023-02-28T08:51:29;7.65;;;2.67;;
34814;SDS011;21030;53.912;15.214;2023-02-28T08:53:58;9.57;;;3.53;;
34814;SDS011;21030;53.912;15.214;2023-02-28T08:56:27;4.13;;;2.75;;
34814;SDS011;21030;53.912;15.214;2023-02-28T08:58:55;6.90;;;3.38;;
34814;SDS011;21030;53.912;15.214;2023-02-28T09:01:24;6.38;;;3.03;;
34814;SDS011;21030;53.912;15.214;2023-02-28T09:03:54;22.30;;;3.50;;
34814;SDS011;21030;53.912;15.214;2023-02-28T09:06:24;10.10;;;3.65;;
34814;SDS011;21030;53.912;15.214;2023-02-28T09:08:56;3.67;;;1.83;;
34814;SDS011;21030;53.912;15.214;2023-02-28T09:11:27;6.53;;;2.58;;
34814;SDS011;21030;53.912;15.214;2023-02-28T09:13:55;2.33;;;1.42;;
34814;SDS011;21030;53.912;15.214;2023-02-28T09:16:22;2.92;;;1.13;;
34814;SDS011;21030;53.912;15.214;2023-02-28T09:18:49;3.60;;;1.92;;
34814;SDS011;21030;53.912;15.214;2023-02-28T09:21:17;3.72;;;1.88;;
34814;SDS011;21030;53.912;15.214;2023-02-28T09:23:46;4.78;;;2.03;;
34814;SDS011;21030;53.912;15.214;2023-02-28T09:26:22;5.38;;;2.22;;
34814;SDS011;21030;53.912;15.214;2023-02-28T09:28:51;5.90;;;2.13;;
34814;SDS011;21030;53.912;15.214;2023-02-28T09:31:24;3.47;;;1.58;;
34814;SDS011;21030;53.912;15.214;2023-02-28T09:33:56;7.07;;;2.38;;
34814;SDS011;21030;53.912;15.214;2023-02-28T09:36:26;4.05;;;1.75;;
34814;SDS011;21030;53.912;15.214;2023-02-28T09:39:08;7.78;;;2.60;;
34814;SDS011;21030;53.912;15.214;2023-02-28T09:41:41;7.05;;;2.40;;
34814;SDS011;21030;53.912;15.214;2023-02-28T09:44:22;3.70;;;1.63;;
34814;SDS011;21030;53.912;15.214;2023-02-28T09:46:58;3.35;;;1.90;;
34814;SDS011;21030;53.912;15.214;2023-02-28T09:49:44;1.92;;;0.82;;
34814;SDS011;21030;53.912;15.214;2023-02-28T09:52:21;4.38;;;1.80;;
34814;SDS011;21030;53.912;15.214;2023-02-28T09:54:54;6.40;;;1.83;;
34814;SDS011;21030;53.912;15.214;2023-02-28T10:08:48;5.45;;;1.70;;
34814;SDS011;21030;53.912;15.214;2023-02-28T10:11:20;7.60;;;2.00;;
34814;SDS011;21030;53.912;15.214;2023-02-28T10:13:58;2.97;;;2.08;;
34814;SDS011;21030;53.912;15.214;2023-02-28T10:16:35;3.95;;;1.48;;
34814;SDS011;21030;53.912;15.214;2023-02-28T10:19:14;3.08;;;0.90;;
34814;SDS011;21030;53.912;15.214;2023-02-28T10:24:45;1.55;;;0.82;;
34814;SDS011;21030;53.912;15.214;2023-02-28T10:27:15;2.75;;;0.77;;
34814;SDS011;21030;53.912;15.214;2023-02-28T10:32:20;3.28;;;0.60;;
34814;SDS011;21030;53.912;15.214;2023-02-28T10:37:56;1.63;;;0.70;;
34814;SDS011;21030;53.912;15.214;2023-02-28T10:40:34;3.28;;;1.30;;
34814;SDS011;21030;53.912;15.214;2023-02-28T10:48:36;1.98;;;1.20;;
34814;SDS011;21030;53.912;15.214;2023-02-28T10:51:07;3.53;;;0.90;;
34814;SDS011;21030;53.912;15.214;2023-02-28T10:53:54;1.73;;;0.73;;
34814;SDS011;21030;53.912;15.214;2023-02-28T10:56:27;0.90;;;0.47;;
34814;SDS011;21030;53.912;15.214;2023-02-28T10:59:02;3.25;;;1.27;;
34814;SDS011;21030;53.912;15.214;2023-02-28T11:01:49;2.30;;;1.40;;
34814;SDS011;21030;53.912;15.214;2023-02-28T11:07:00;2.00;;;1.15;;
34814;SDS011;21030;53.912;15.214;2023-02-28T11:09:36;1.23;;;0.77;;
34814;SDS011;21030;53.912;15.214;2023-02-28T11:12:07;1.00;;;0.65;;
34814;SDS011;21030;53.912;15.214;2023-02-28T11:14:47;7.13;;;1.88;;
34814;SDS011;21030;53.912;15.214;2023-02-28T11:17:27;3.60;;;1.17;;
34814;SDS011;21030;53.912;15.214;2023-02-28T11:20:06;0.80;;;0.50;;
34814;SDS011;21030;53.912;15.214;2023-02-28T11:22:45;3.40;;;1.55;;
34814;SDS011;21030;53.912;15.214;2023-02-28T11:25:21;2.05;;;0.70;;
34814;SDS011;21030;53.912;15.214;2023-02-28T11:28:00;6.60;;;0.98;;
34814;SDS011;21030;53.912;15.214;2023-02-28T11:30:42;2.25;;;1.25;;
34814;SDS011;21030;53.912;15.214;2023-02-28T11:33:21;1.58;;;0.98;;
34814;SDS011;21030;53.912;15.214;2023-02-28T11:35:53;2.10;;;0.55;;
34814;SDS011;21030;53.912;15.214;2023-02-28T11:38:27;1.13;;;0.52;;
34814;SDS011;21030;53.912;15.214;2023-02-28T11:50:52;0.95;;;0.45;;
34814;SDS011;21030;53.912;15.214;2023-02-28T11:56:37;1.98;;;0.57;;
34814;SDS011;21030;53.912;15.214;2023-02-28T11:59:54;0.63;;;0.40;;
34814;SDS011;21030;53.912;15.214;2023-02-28T12:05:46;2.17;;;0.82;;
34814;SDS011;21030;53.912;15.214;2023-02-28T12:19:17;1.70;;;0.70;;
34814;SDS011;21030;53.912;15.214;2023-02-28T12:27:42;1.10;;;0.85;;
34814;SDS011;21030;53.912;15.214;2023-02-28T12:30:22;1.25;;;0.65;;
34814;SDS011;21030;53.912;15.214;2023-02-28T12:33:09;1.88;;;0.68;;
34814;SDS011;21030;53.912;15.214;2023-02-28T12:35:46;1.10;;;0.68;;
34814;SDS011;21030;53.912;15.214;2023-02-28T12:38:23;17.40;;;0.98;;
34814;SDS011;21030;53.912;15.214;2023-02-28T12:44:11;2.58;;;0.90;;
34814;SDS011;21030;53.912;15.214;2023-02-28T12:46:51;1.20;;;0.68;;
34814;SDS011;21030;53.912;15.214;2023-02-28T12:49:30;1.75;;;0.75;;
34814;SDS011;21030;53.912;15.214;2023-02-28T12:52:00;1.63;;;0.90;;
34814;SDS011;21030;53.912;15.214;2023-02-28T12:54:35;2.00;;;1.05;;
34814;SDS011;21030;53.912;15.214;2023-02-28T13:10:38;0.43;;;0.40;;
34814;SDS011;21030;53.912;15.214;2023-02-28T13:13:11;1.00;;;0.65;;
34814;SDS011;21030;53.912;15.214;2023-02-28T13:16:02;1.00;;;0.57;;
34814;SDS011;21030;53.912;15.214;2023-02-28T13:18:35;0.60;;;0.60;;
34814;SDS011;21030;53.912;15.214;2023-02-28T13:21:09;0.80;;;0.60;;
34814;SDS011;21030;53.912;15.214;2023-02-28T13:34:38;2.17;;;0.63;;
34814;SDS011;21030;53.912;15.214;2023-02-28T13:39:48;1.63;;;0.88;;
34814;SDS011;21030;53.912;15.214;2023-02-28T13:42:24;2.13;;;1.05;;
34814;SDS011;21030;53.912;15.214;2023-02-28T13:47:41;1.17;;;0.60;;
34814;SDS011;21030;53.912;15.214;2023-02-28T13:55:55;2.28;;;1.30;;
34814;SDS011;21030;53.912;15.214;2023-02-28T14:07:18;1.08;;;0.60;;
34814;SDS011;21030;53.912;15.214;2023-02-28T14:09:55;1.25;;;0.30;;
34814;SDS011;21030;53.912;15.214;2023-02-28T14:15:34;2.92;;;0.82;;
34814;SDS011;21030;53.912;15.214;2023-02-28T14:18:28;2.13;;;1.40;;
34814;SDS011;21030;53.912;15.214;2023-02-28T14:21:01;1.73;;;0.90;;
34814;SDS011;21030;53.912;15.214;2023-02-28T14:30:03;4.78;;;1.17;;
34814;SDS011;21030;53.912;15.214;2023-02-28T14:38:29;1.20;;;0.73;;
34814;SDS011;21030;53.912;15.214;2023-02-28T14:41:00;1.83;;;0.98;;
34814;SDS011;21030;53.912;15.214;2023-02-28T14:43:32;4.25;;;1.73;;
34814;SDS011;21030;53.912;15.214;2023-02-28T14:46:00;3.35;;;1.73;;
34814;SDS011;21030;53.912;15.214;2023-02-28T14:48:28;5.05;;;1.77;;
34814;SDS011;21030;53.912;15.214;2023-02-28T14:50:59;5.53;;;2.13;;
34814;SDS011;21030;53.912;15.214;2023-02-28T14:53:35;4.95;;;2.10;;
34814;SDS011;21030;53.912;15.214;2023-02-28T14:56:03;5.63;;;1.50;;
34814;SDS011;21030;53.912;15.214;2023-02-28T14:58:32;3.92;;;1.55;;
34814;SDS011;21030;53.912;15.214;2023-02-28T15:01:01;1.95;;;0.90;;
34814;SDS011;21030;53.912;15.214;2023-02-28T15:06:03;5.47;;;2.28;;
34814;SDS011;21030;53.912;15.214;2023-02-28T15:08:32;3.00;;;1.45;;
34814;SDS011;21030;53.912;15.214;2023-02-28T15:13:40;2.05;;;1.05;;
34814;SDS011;21030;53.912;15.214;2023-02-28T15:16:18;5.75;;;1.52;;
34814;SDS011;21030;53.912;15.214;2023-02-28T15:19:22;1.85;;;0.60;;
34814;SDS011;21030;53.912;15.214;2023-02-28T15:22:04;1.10;;;0.75;;
34814;SDS011;21030;53.912;15.214;2023-02-28T15:24:38;1.35;;;0.60;;
34814;SDS011;21030;53.912;15.214;2023-02-28T15:29:48;1.75;;;1.15;;
34814;SDS011;21030;53.912;15.214;2023-02-28T15:34:56;1.90;;;0.77;;
34814;SDS011;21030;53.912;15.214;2023-02-28T15:40:11;8.52;;;1.50;;
34814;SDS011;21030;53.912;15.214;2023-02-28T15:42:57;2.35;;;1.05;;
34814;SDS011;21030;53.912;15.214;2023-02-28T15:45:26;1.90;;;0.55;;
34814;SDS011;21030;53.912;15.214;2023-02-28T15:47:55;2.90;;;0.50;;
34814;SDS011;21030;53.912;15.214;2023-02-28T15:50:33;2.88;;;1.30;;
34814;SDS011;21030;53.912;15.214;2023-02-28T15:53:01;6.32;;;1.50;;
34814;SDS011;21030;53.912;15.214;2023-02-28T15:55:29;5.75;;;1.52;;
34814;SDS011;21030;53.912;15.214;2023-02-28T15:57:57;5.60;;;2.00;;
34814;SDS011;21030;53.912;15.214;2023-02-28T16:00:29;5.50;;;1.85;;
34814;SDS011;21030;53.912;15.214;2023-02-28T16:02:59;2.53;;;1.60;;
34814;SDS011;21030;53.912;15.214;2023-02-28T16:05:30;7.82;;;1.40;;
34814;SDS011;21030;53.912;15.214;2023-02-28T16:07:59;5.78;;;1.73;;
34814;SDS011;21030;53.912;15.214;2023-02-28T16:10:41;4.85;;;1.38;;
34814;SDS011;21030;53.912;15.214;2023-02-28T16:13:11;2.38;;;1.10;;
34814;SDS011;21030;53.912;15.214;2023-02-28T16:15:42;2.33;;;1.15;;
34814;SDS011;21030;53.912;15.214;2023-02-28T16:18:10;8.30;;;2.90;;
34814;SDS011;21030;53.912;15.214;2023-02-28T16:20:38;10.77;;;3.83;;
34814;SDS011;21030;53.912;15.214;2023-02-28T16:23:06;16.70;;;4.90;;
34814;SDS011;21030;53.912;15.214;2023-02-28T16:28:03;4.35;;;2.38;;
34814;SDS011;21030;53.912;15.214;2023-02-28T16:30:34;6.32;;;2.20;;
34814;SDS011;21030;53.912;15.214;2023-02-28T16:33:01;3.22;;;2.20;;
34814;SDS011;21030;53.912;15.214;2023-02-28T16:35:28;2.47;;;1.38;;
34814;SDS011;21030;53.912;15.214;2023-02-28T16:37:56;4.07;;;1.75;;
34814;SDS011;21030;53.912;15.214;2023-02-28T16:40:24;7.78;;;3.53;;
34814;SDS011;21030;53.912;15.214;2023-02-28T16:42:53;12.70;;;3.45;;
34814;SDS011;21030;53.912;15.214;2023-02-28T16:45:26;6.60;;;2.40;;
34814;SDS011;21030;53.912;15.214;2023-02-28T16:47:56;6.53;;;2.92;;
34814;SDS011;21030;53.912;15.214;2023-02-28T16:50:25;10.80;;;4.32;;
34814;SDS011;21030;53.912;15.214;2023-02-28T16:52:54;8.57;;;3.60;;
34814;SDS011;21030;53.912;15.214;2023-02-28T16:55:24;6.40;;;3.85;;
34814;SDS011;21030;53.912;15.214;2023-02-28T16:57:56;4.93;;;3.05;;
34814;SDS011;21030;53.912;15.214;2023-02-28T17:00:25;3.88;;;2.42;;
34814;SDS011;21030;53.912;15.214;2023-02-28T17:02:53;6.72;;;2.10;;
34814;SDS011;21030;53.912;15.214;2023-02-28T17:05:21;1.85;;;1.63;;
34814;SDS011;21030;53.912;15.214;2023-02-28T17:07:49;4.65;;;2.80;;
34814;SDS011;21030;53.912;15.214;2023-02-28T17:10:25;9.88;;;3.20;;
34814;SDS011;21030;53.912;15.214;2023-02-28T17:12:53;4.97;;;2.35;;
34814;SDS011;21030;53.912;15.214;2023-02-28T17:15:34;5.50;;;3.83;;
34814;SDS011;21030;53.912;15.214;2023-02-28T17:18:04;8.10;;;3.53;;
34814;SDS011;21030;53.912;15.214;2023-02-28T17:20:31;18.35;;;4.50;;
34814;SDS011;21030;53.912;15.214;2023-02-28T17:23:00;7.40;;;3.45;;
34814;SDS011;21030;53.912;15.214;2023-02-28T17:25:27;11.40;;;3.97;;
34814;SDS011;21030;53.912;15.214;2023-02-28T17:27:54;7.60;;;3.70;;
34814;SDS011;21030;53.912;15.214;2023-02-28T17:30:23;9.75;;;4.50;;
34814;SDS011;21030;53.912;15.214;2023-02-28T17:32:56;4.82;;;2.85;;
34814;SDS011;21030;53.912;15.214;2023-02-28T17:35:24;8.98;;;5.53;;
34814;SDS011;21030;53.912;15.214;2023-02-28T17:37:54;4.47;;;3.00;;
34814;SDS011;21030;53.912;15.214;2023-02-28T17:40:22;5.97;;;4.03;;
34814;SDS011;21030;53.912;15.214;2023-02-28T17:42:50;22.13;;;8.07;;
34814;SDS011;21030;53.912;15.214;2023-02-28T17:45:18;12.75;;;6.10;;
34814;SDS011;21030;53.912;15.214;2023-02-28T17:47:47;12.40;;;6.40;;
34814;SDS011;21030;53.912;15.214;2023-02-28T17:50:17;8.18;;;5.82;;
34814;SDS011;21030;53.912;15.214;2023-02-28T17:52:47;16.17;;;9.68;;
34814;SDS011;21030;53.912;15.214;2023-02-28T17:55:14;11.40;;;6.18;;
34814;SDS011;21030;53.912;15.214;2023-02-28T17:57:42;11.18;;;6.32;;
34814;SDS011;21030;53.912;15.214;2023-02-28T18:00:11;9.18;;;5.10;;
34814;SDS011;21030;53.912;15.214;2023-02-28T18:02:40;24.88;;;9.10;;